Time;durP1;ratioP1;P1;durP2;ratioP2;P2;SDS_P1;SDS_P2;PMS_P1;PMS_P2;Temp;Humidity;BMP_temperature;BMP_pressure;BME280_temperature;BME280_humidity;BME280_pressure;Samples;Min_cycle;Max_cycle;Signal;HPM_P1;HPM_P2
2021/07/14 00:01:43;;;;;;;2.57;2.47;;;;;;;;;;468764;253;27633;-74
2021/07/14 00:03:45;;;;;;;3.33;2.50;;;;;;;;;;468743;254;27420;-74
2021/07/14 00:05:47;;;;;;;3.07;2.87;;;;;;;;;;468746;254;27411;-74
2021/07/14 00:07:49;;;;;;;3.10;2.90;;;;;;;;;;468741;253;27448;-74
2021/07/14 00:09:51;;;;;;;3.30;2.83;;;;;;;;;;468726;253;27452;-74
2021/07/14 00:11:56;;;;;;;2.90;2.70;;;;;;;;;;468748;253;27465;-74
2021/07/14 00:14:14;;;;;;;3.30;3.03;;;;;;;;;;468755;253;28023;-75
2021/07/14 00:22:43;;;;;;;3.20;3.00;;;;;;;;;;468742;254;27412;-74
2021/07/14 00:24:45;;;;;;;3.20;3.00;;;;;;;;;;468752;253;27544;-74
2021/07/14 00:26:48;;;;;;;2.80;2.60;;;;;;;;;;468725;254;27424;-74
2021/07/14 00:28:51;;;;;;;3.00;2.80;;;;;;;;;;468762;254;27411;-74
2021/07/14 00:30:55;;;;;;;4.07;2.93;;;;;;;;;;468644;254;27896;-74
2021/07/14 00:32:54;;;;;;;3.33;3.13;;;;;;;;;;468604;254;27399;-74
2021/07/14 00:34:56;;;;;;;3.23;3.03;;;;;;;;;;468738;254;28803;-74
2021/07/14 00:36:58;;;;;;;3.10;2.90;;;;;;;;;;468719;253;27440;-74
2021/07/14 00:39:00;;;;;;;3.10;2.90;;;;;;;;;;468767;254;27969;-74
2021/07/14 00:41:02;;;;;;;2.90;2.70;;;;;;;;;;468730;254;27455;-75
2021/07/14 00:43:04;;;;;;;2.90;2.70;;;;;;;;;;468749;254;27928;-74
2021/07/14 00:45:07;;;;;;;3.17;2.97;;;;;;;;;;468710;254;27527;-74
2021/07/14 00:47:09;;;;;;;2.90;2.70;;;;;;;;;;468721;254;28066;-75
2021/07/14 00:49:11;;;;;;;3.03;2.83;;;;;;;;;;468729;254;27463;-74
2021/07/14 00:51:13;;;;;;;2.80;2.60;;;;;;;;;;468741;254;28043;-74
2021/07/14 00:53:15;;;;;;;2.83;2.57;;;;;;;;;;468722;253;27601;-74
2021/07/14 00:55:17;;;;;;;2.87;2.70;;;;;;;;;;468746;254;28027;-74
2021/07/14 00:57:21;;;;;;;2.63;2.50;;;;;;;;;;468723;253;27470;-74
2021/07/14 00:59:21;;;;;;;2.70;2.50;;;;;;;;;;468702;253;27948;-75
2021/07/14 01:01:24;;;;;;;2.33;2.23;;;;;;;;;;468779;254;27464;-74
2021/07/14 02:58:38;;;;;;;3.03;2.70;;;;;;;;;;468730;254;27863;-75
2021/07/14 03:00:40;;;;;;;2.47;2.33;;;;;;;;;;468759;253;28782;-75
2021/07/14 03:02:42;;;;;;;2.73;2.53;;;;;;;;;;468759;254;27584;-74
2021/07/14 03:04:44;;;;;;;2.73;2.53;;;;;;;;;;468742;254;27528;-75
2021/07/14 03:06:46;;;;;;;2.83;2.63;;;;;;;;;;468734;254;28001;-75
2021/07/14 03:08:48;;;;;;;2.87;2.30;;;;;;;;;;468719;254;27455;-75
2021/07/14 03:10:50;;;;;;;2.77;2.57;;;;;;;;;;468733;253;28000;-75
2021/07/14 03:12:54;;;;;;;4.30;2.10;;;;;;;;;;468724;253;27454;-75
2021/07/14 03:14:55;;;;;;;4.60;2.63;;;;;;;;;;468643;254;28161;-75
2021/07/14 03:16:57;;;;;;;6.47;4.40;;;;;;;;;;468731;254;27559;-74
2021/07/14 03:18:59;;;;;;;4.57;4.20;;;;;;;;;;468759;253;27935;-74
2021/07/14 03:21:01;;;;;;;4.00;3.77;;;;;;;;;;468750;253;27551;-74
2021/07/14 03:23:03;;;;;;;4.03;3.73;;;;;;;;;;468728;254;27934;-74
2021/07/14 03:25:05;;;;;;;3.40;3.20;;;;;;;;;;468725;254;27456;-74
2021/07/14 03:27:07;;;;;;;3.37;3.17;;;;;;;;;;468690;254;27952;-74
2021/07/14 03:29:09;;;;;;;3.90;3.70;;;;;;;;;;468738;254;27448;-75
2021/07/14 03:31:12;;;;;;;3.80;3.27;;;;;;;;;;468721;254;27923;-74
2021/07/14 03:33:14;;;;;;;3.53;3.30;;;;;;;;;;468722;254;27499;-74
2021/07/14 03:35:16;;;;;;;3.57;3.37;;;;;;;;;;468722;254;27942;-74
2021/07/14 03:37:18;;;;;;;3.60;3.40;;;;;;;;;;468693;254;27686;-74
2021/07/14 03:39:20;;;;;;;3.93;3.63;;;;;;;;;;468731;254;28023;-74
2021/07/14 03:41:22;;;;;;;3.83;3.53;;;;;;;;;;468698;254;27495;-74
2021/07/14 03:43:24;;;;;;;4.40;4.00;;;;;;;;;;468721;253;27508;-72
2021/07/14 03:45:26;;;;;;;4.57;4.27;;;;;;;;;;468730;254;27448;-75
2021/07/14 03:47:28;;;;;;;4.27;3.97;;;;;;;;;;468700;253;27460;-74
2021/07/14 03:49:31;;;;;;;4.70;4.37;;;;;;;;;;468736;253;27904;-73
2021/07/14 03:51:33;;;;;;;4.40;4.10;;;;;;;;;;468740;254;27408;-74
2021/07/14 03:53:35;;;;;;;4.60;4.30;;;;;;;;;;468709;254;27545;-74
2021/07/14 03:55:37;;;;;;;4.43;4.13;;;;;;;;;;468721;254;27551;-73
2021/07/14 03:57:39;;;;;;;4.10;3.80;;;;;;;;;;468733;253;27621;-74
2021/07/14 03:59:41;;;;;;;4.90;4.27;;;;;;;;;;468724;254;27606;-74
2021/07/14 04:01:43;;;;;;;3.90;3.60;;;;;;;;;;468721;254;27471;-74
2021/07/14 04:03:45;;;;;;;4.37;4.10;;;;;;;;;;468721;254;27433;-74
2021/07/14 04:05:48;;;;;;;4.10;3.80;;;;;;;;;;468728;253;27424;-74
2021/07/14 04:07:50;;;;;;;4.43;4.10;;;;;;;;;;468705;254;27432;-74
2021/07/14 04:09:52;;;;;;;4.53;4.23;;;;;;;;;;468707;254;27868;-74
2021/07/14 04:11:54;;;;;;;4.60;4.20;;;;;;;;;;468767;253;27534;-75
2021/07/14 04:13:56;;;;;;;4.03;3.73;;;;;;;;;;468719;254;27459;-74
2021/07/14 04:15:58;;;;;;;4.67;3.90;;;;;;;;;;468789;254;27439;-74
2021/07/14 04:18:00;;;;;;;3.63;3.33;;;;;;;;;;468626;253;27456;-74
2021/07/14 04:20:02;;;;;;;4.60;3.70;;;;;;;;;;468704;254;27452;-74
2021/07/14 04:22:04;;;;;;;3.50;3.30;;;;;;;;;;468680;254;27665;-74
2021/07/14 04:24:07;;;;;;;4.00;3.70;;;;;;;;;;468678;253;27508;-75
2021/07/14 04:26:09;;;;;;;3.97;3.67;;;;;;;;;;468639;254;27463;-75
2021/07/14 04:28:11;;;;;;;3.57;3.37;;;;;;;;;;468673;254;27443;-74
2021/07/14 04:30:13;;;;;;;3.23;3.03;;;;;;;;;;468704;253;27582;-74
2021/07/14 04:32:15;;;;;;;4.00;3.70;;;;;;;;;;468694;254;27459;-74
2021/07/14 04:34:17;;;;;;;5.40;3.47;;;;;;;;;;468657;254;27688;-74
2021/07/14 04:36:19;;;;;;;4.47;3.80;;;;;;;;;;468690;253;27508;-74
2021/07/14 04:38:22;;;;;;;3.80;3.50;;;;;;;;;;468807;254;27637;-74
2021/07/14 04:40:23;;;;;;;3.30;3.03;;;;;;;;;;468748;253;27464;-75
2021/07/14 04:42:26;;;;;;;3.30;3.10;;;;;;;;;;468790;253;27524;-74
2021/07/14 04:44:48;;;;;;;3.90;3.63;;;;;;;;;;468769;254;27405;-74
2021/07/14 04:46:39;;;;;;;3.37;3.17;;;;;;;;;;468252;254;28023;-74
2021/07/14 04:48:41;;;;;;;3.43;3.23;;;;;;;;;;468759;254;27464;-74
2021/07/14 04:50:43;;;;;;;3.90;3.60;;;;;;;;;;468741;254;27657;-74
2021/07/14 04:52:45;;;;;;;3.93;3.53;;;;;;;;;;468762;253;27470;-74
2021/07/14 04:54:47;;;;;;;3.90;3.60;;;;;;;;;;468755;253;27459;-74
2021/07/14 04:56:50;;;;;;;3.50;3.30;;;;;;;;;;468737;253;27474;-74
2021/07/14 04:58:52;;;;;;;3.93;3.63;;;;;;;;;;468721;253;27460;-74
2021/07/14 05:00:54;;;;;;;3.40;3.20;;;;;;;;;;468745;254;27535;-74
2021/07/14 05:02:56;;;;;;;3.20;3.00;;;;;;;;;;468756;254;27427;-74
2021/07/14 05:04:58;;;;;;;3.60;3.40;;;;;;;;;;468714;254;27471;-74
2021/07/14 05:07:00;;;;;;;3.30;3.10;;;;;;;;;;468715;253;27448;-74
2021/07/14 05:09:02;;;;;;;3.50;3.30;;;;;;;;;;468734;253;27424;-74
2021/07/14 05:11:04;;;;;;;3.17;2.97;;;;;;;;;;468754;253;27465;-74
2021/07/14 05:13:07;;;;;;;4.10;3.80;;;;;;;;;;468720;254;27563;-74
2021/07/14 05:15:09;;;;;;;3.30;3.00;;;;;;;;;;468763;254;27417;-74
2021/07/14 05:17:11;;;;;;;3.47;3.20;;;;;;;;;;468711;254;27788;-74
2021/07/14 05:19:14;;;;;;;2.90;2.70;;;;;;;;;;468755;254;27416;-74
2021/07/14 05:21:15;;;;;;;3.40;3.13;;;;;;;;;;468698;253;27424;-74
2021/07/14 05:23:17;;;;;;;3.50;3.30;;;;;;;;;;468712;254;27511;-74
2021/07/14 05:25:19;;;;;;;5.80;3.00;;;;;;;;;;468739;253;27444;-74
2021/07/14 05:27:21;;;;;;;3.10;2.90;;;;;;;;;;468720;253;27496;-74
2021/07/14 05:29:24;;;;;;;3.30;3.10;;;;;;;;;;468738;254;27412;-74
2021/07/14 05:31:26;;;;;;;2.73;2.53;;;;;;;;;;468750;253;27432;-74
2021/07/14 05:33:28;;;;;;;2.93;2.73;;;;;;;;;;468730;254;27807;-74
2021/07/14 05:35:30;;;;;;;3.10;2.90;;;;;;;;;;468760;254;27555;-74
2021/07/14 05:37:32;;;;;;;3.00;2.80;;;;;;;;;;468747;254;27459;-74
2021/07/14 05:39:34;;;;;;;3.80;3.50;;;;;;;;;;468737;254;27516;-74
2021/07/14 05:41:36;;;;;;;3.43;3.13;;;;;;;;;;468757;254;27531;-74
2021/07/14 05:43:38;;;;;;;3.43;3.23;;;;;;;;;;468733;254;27443;-74
2021/07/14 05:45:40;;;;;;;3.10;2.90;;;;;;;;;;468746;254;27471;-74
2021/07/14 05:47:42;;;;;;;2.83;2.63;;;;;;;;;;468752;254;27456;-74
2021/07/14 05:49:45;;;;;;;2.90;2.70;;;;;;;;;;468729;253;27460;-75
2021/07/14 05:51:47;;;;;;;3.10;2.90;;;;;;;;;;468724;254;27515;-74
2021/07/14 05:53:49;;;;;;;2.30;2.20;;;;;;;;;;468720;253;27459;-74
2021/07/14 05:55:51;;;;;;;2.40;2.30;;;;;;;;;;468740;253;27519;-74
2021/07/14 05:57:53;;;;;;;2.70;2.50;;;;;;;;;;468738;253;27471;-74
2021/07/14 05:59:55;;;;;;;3.10;2.80;;;;;;;;;;468633;253;27519;-74
2021/07/14 06:01:57;;;;;;;3.17;2.67;;;;;;;;;;468582;254;27476;-74
2021/07/14 06:04:00;;;;;;;3.07;2.87;;;;;;;;;;468537;253;27496;-75
2021/07/14 06:06:01;;;;;;;3.37;3.17;;;;;;;;;;468465;254;27523;-75
2021/07/14 06:08:04;;;;;;;2.90;2.70;;;;;;;;;;468623;253;27416;-75
2021/07/14 06:10:06;;;;;;;3.43;3.13;;;;;;;;;;468712;254;27460;-74
2021/07/14 06:12:08;;;;;;;2.87;2.70;;;;;;;;;;468736;254;27396;-74
2021/07/14 06:14:10;;;;;;;3.10;2.90;;;;;;;;;;468752;253;27432;-75
2021/07/14 06:16:12;;;;;;;3.60;3.30;;;;;;;;;;468755;253;27424;-74
2021/07/14 06:18:14;;;;;;;3.97;3.00;;;;;;;;;;468773;253;27522;-74
2021/07/14 06:20:16;;;;;;;2.57;2.40;;;;;;;;;;468744;253;27483;-75
2021/07/14 06:22:18;;;;;;;3.00;2.83;;;;;;;;;;468709;253;27430;-75
2021/07/14 06:24:21;;;;;;;3.40;3.20;;;;;;;;;;468720;254;27417;-75
2021/07/14 06:26:23;;;;;;;5.03;3.17;;;;;;;;;;468724;254;27420;-74
2021/07/14 06:28:25;;;;;;;3.60;3.30;;;;;;;;;;468720;254;27401;-74
2021/07/14 06:30:27;;;;;;;3.73;3.43;;;;;;;;;;468740;253;27516;-74
2021/07/14 06:32:29;;;;;;;3.43;3.23;;;;;;;;;;468728;253;27397;-74
2021/07/14 06:34:31;;;;;;;3.50;3.30;;;;;;;;;;468744;254;27516;-74
2021/07/14 06:36:33;;;;;;;3.03;2.83;;;;;;;;;;468717;253;27435;-74
2021/07/14 06:38:36;;;;;;;3.67;3.37;;;;;;;;;;468701;253;27858;-74
2021/07/14 06:40:38;;;;;;;4.27;3.90;;;;;;;;;;468485;251;27509;-74
2021/07/14 06:42:40;;;;;;;4.70;3.40;;;;;;;;;;468456;253;28202;-75
2021/07/14 06:44:42;;;;;;;4.30;3.80;;;;;;;;;;468554;251;27582;-75
2021/07/14 06:46:44;;;;;;;9.43;3.63;;;;;;;;;;468373;253;28035;-75
2021/07/14 06:48:46;;;;;;;4.20;3.80;;;;;;;;;;468629;253;27548;-74
2021/07/14 06:50:48;;;;;;;4.63;4.23;;;;;;;;;;468463;253;28123;-75
2021/07/14 06:52:50;;;;;;;5.27;3.63;;;;;;;;;;468837;253;27557;-74
2021/07/14 06:54:52;;;;;;;4.50;4.10;;;;;;;;;;470909;251;28147;-74
2021/07/14 06:56:54;;;;;;;4.00;3.70;;;;;;;;;;474278;251;27459;-74
2021/07/14 06:58:56;;;;;;;3.90;3.60;;;;;;;;;;474316;250;27944;-74
2021/07/14 07:00:59;;;;;;;4.20;3.90;;;;;;;;;;474343;249;27461;-75
2021/07/14 07:03:01;;;;;;;4.10;3.70;;;;;;;;;;474349;249;28027;-75
2021/07/14 07:05:03;;;;;;;4.00;3.70;;;;;;;;;;474312;249;27533;-74
2021/07/14 07:07:05;;;;;;;4.40;4.10;;;;;;;;;;474313;250;27949;-75
2021/07/14 07:09:07;;;;;;;3.80;3.50;;;;;;;;;;474115;249;27489;-74
2021/07/14 07:11:09;;;;;;;3.93;3.63;;;;;;;;;;473899;251;27952;-75
2021/07/14 07:13:15;;;;;;;4.57;4.17;;;;;;;;;;474283;249;27524;-75
2021/07/14 07:15:18;;;;;;;3.60;3.40;;;;;;;;;;474070;251;28028;-75
2021/07/14 07:17:15;;;;;;;4.00;3.60;;;;;;;;;;474045;251;27421;-75
2021/07/14 07:19:18;;;;;;;4.13;3.73;;;;;;;;;;474346;249;28047;-75
2021/07/14 07:21:20;;;;;;;4.10;3.80;;;;;;;;;;474315;249;27421;-75
2021/07/14 07:23:22;;;;;;;3.70;3.40;;;;;;;;;;474354;250;27877;-75
2021/07/14 07:25:26;;;;;;;3.90;3.60;;;;;;;;;;474341;249;27445;-75
2021/07/14 07:27:32;;;;;;;3.60;3.40;;;;;;;;;;474231;251;27885;-74
2021/07/14 07:29:28;;;;;;;4.30;3.90;;;;;;;;;;473887;251;27429;-75
2021/07/14 07:31:30;;;;;;;3.60;3.33;;;;;;;;;;474330;250;27952;-75
2021/07/14 07:33:32;;;;;;;4.30;4.00;;;;;;;;;;474338;249;27461;-74
2021/07/14 07:35:35;;;;;;;3.87;3.53;;;;;;;;;;474339;250;27868;-75
2021/07/14 07:37:37;;;;;;;3.60;3.40;;;;;;;;;;474337;249;27421;-75
2021/07/14 07:39:41;;;;;;;3.90;3.60;;;;;;;;;;474310;249;27964;-75
2021/07/14 07:41:41;;;;;;;3.63;3.43;;;;;;;;;;474220;251;27457;-74
2021/07/14 07:43:43;;;;;;;5.03;3.73;;;;;;;;;;474345;250;28013;-74
2021/07/14 07:45:45;;;;;;;3.43;3.13;;;;;;;;;;474324;249;27505;-75
2021/07/14 07:47:47;;;;;;;3.40;3.20;;;;;;;;;;469671;250;28066;-75
2021/07/14 07:49:49;;;;;;;4.03;3.63;;;;;;;;;;468862;253;27625;-75
2021/07/14 07:51:51;;;;;;;6.63;3.40;;;;;;;;;;468866;253;28076;-74
2021/07/14 07:53:54;;;;;;;3.07;2.87;;;;;;;;;;474396;249;27564;-75
2021/07/14 07:55:56;;;;;;;3.40;3.20;;;;;;;;;;478090;249;28006;-75
2021/07/14 07:57:58;;;;;;;3.60;3.30;;;;;;;;;;478080;249;27633;-75
2021/07/14 08:00:00;;;;;;;3.50;3.20;;;;;;;;;;478077;249;28092;-75
2021/07/14 08:02:02;;;;;;;3.00;2.80;;;;;;;;;;478083;249;27533;-75
2021/07/14 08:04:04;;;;;;;3.27;2.97;;;;;;;;;;478078;249;28082;-74
2021/07/14 08:06:09;;;;;;;2.93;2.73;;;;;;;;;;478060;249;27618;-74
2021/07/14 08:08:08;;;;;;;3.00;2.80;;;;;;;;;;477869;249;28080;-74
2021/07/14 08:10:11;;;;;;;3.67;3.37;;;;;;;;;;478077;249;27586;-74
2021/07/14 08:12:13;;;;;;;3.03;2.83;;;;;;;;;;478061;249;28008;-74
2021/07/14 08:14:16;;;;;;;2.93;2.73;;;;;;;;;;478065;249;27480;-74
2021/07/14 08:16:17;;;;;;;3.27;2.80;;;;;;;;;;478055;249;28012;-74
2021/07/14 08:18:19;;;;;;;3.30;3.10;;;;;;;;;;478086;249;27509;-75
2021/07/14 08:20:23;;;;;;;3.33;2.97;;;;;;;;;;478057;249;27971;-74
2021/07/14 08:22:23;;;;;;;3.00;2.70;;;;;;;;;;478012;249;27587;-74
2021/07/14 08:24:25;;;;;;;3.10;2.80;;;;;;;;;;476963;249;27953;-74
2021/07/14 08:26:27;;;;;;;3.40;3.00;;;;;;;;;;468788;253;27596;-74
2021/07/14 08:28:30;;;;;;;3.70;3.50;;;;;;;;;;468797;253;28003;-75
2021/07/14 08:30:32;;;;;;;2.90;2.70;;;;;;;;;;468773;253;27553;-74
2021/07/14 08:32:34;;;;;;;3.00;2.80;;;;;;;;;;468737;253;28154;-75
2021/07/14 08:34:36;;;;;;;3.27;3.07;;;;;;;;;;468770;253;27566;-75
2021/07/14 08:36:39;;;;;;;2.60;2.50;;;;;;;;;;468799;254;28056;-74
2021/07/14 08:38:40;;;;;;;3.10;2.90;;;;;;;;;;468732;253;27641;-74
2021/07/14 08:40:42;;;;;;;2.60;2.40;;;;;;;;;;468793;253;28089;-74
2021/07/14 08:42:44;;;;;;;3.03;2.93;;;;;;;;;;468801;253;27552;-74
2021/07/14 08:44:47;;;;;;;2.67;2.50;;;;;;;;;;468774;253;29946;-74
2021/07/14 08:46:49;;;;;;;2.77;2.57;;;;;;;;;;468827;253;27655;-74
2021/07/14 08:48:51;;;;;;;3.00;2.80;;;;;;;;;;468780;253;28069;-75
2021/07/14 08:50:57;;;;;;;2.80;2.60;;;;;;;;;;468759;253;27591;-75
2021/07/14 08:52:55;;;;;;;2.80;2.70;;;;;;;;;;468508;254;27641;-75
2021/07/14 08:54:57;;;;;;;2.97;2.77;;;;;;;;;;468770;253;27614;-74
2021/07/14 08:56:59;;;;;;;2.47;2.30;;;;;;;;;;468793;249;28042;-75
2021/07/14 08:59:01;;;;;;;2.20;2.10;;;;;;;;;;468775;253;27588;-75
2021/07/14 09:01:03;;;;;;;2.20;2.10;;;;;;;;;;468791;253;28058;-75
2021/07/14 09:03:06;;;;;;;2.30;2.10;;;;;;;;;;468767;253;27584;-75
2021/07/14 09:05:08;;;;;;;2.90;2.40;;;;;;;;;;468819;249;28071;-75
2021/07/14 09:07:10;;;;;;;2.57;2.40;;;;;;;;;;468787;253;27598;-74
2021/07/14 09:09:12;;;;;;;2.40;2.20;;;;;;;;;;468812;253;27595;-74
2021/07/14 09:11:14;;;;;;;3.23;2.63;;;;;;;;;;468806;254;27598;-75
2021/07/14 09:13:16;;;;;;;2.10;2.00;;;;;;;;;;468778;254;27588;-75
2021/07/14 09:15:21;;;;;;;2.30;2.20;;;;;;;;;;468779;253;27614;-74
2021/07/14 09:17:22;;;;;;;2.10;2.00;;;;;;;;;;468607;254;27693;-75
2021/07/14 09:19:23;;;;;;;2.40;2.07;;;;;;;;;;468675;254;27593;-75
2021/07/14 09:21:25;;;;;;;2.50;2.40;;;;;;;;;;468812;253;27639;-75
2021/07/14 09:23:27;;;;;;;1.90;1.80;;;;;;;;;;468789;254;27707;-75
2021/07/14 09:25:30;;;;;;;2.37;2.27;;;;;;;;;;468838;253;27556;-74
2021/07/14 09:27:36;;;;;;;2.17;1.80;;;;;;;;;;468796;254;27648;-75
2021/07/14 09:29:33;;;;;;;2.07;1.97;;;;;;;;;;468467;254;27557;-74
2021/07/14 09:31:35;;;;;;;2.40;2.10;;;;;;;;;;468816;253;27582;-75
2021/07/14 09:33:37;;;;;;;2.37;2.17;;;;;;;;;;468814;253;27531;-74
2021/07/14 09:35:41;;;;;;;2.13;1.97;;;;;;;;;;468786;253;27554;-75
2021/07/14 09:37:42;;;;;;;2.20;2.10;;;;;;;;;;468702;253;27538;-74
2021/07/14 09:39:44;;;;;;;2.13;2.03;;;;;;;;;;468800;253;27572;-75
2021/07/14 09:41:46;;;;;;;2.67;2.47;;;;;;;;;;468791;254;27644;-74
2021/07/14 09:43:48;;;;;;;2.40;2.20;;;;;;;;;;468800;253;27615;-74
2021/07/14 09:45:51;;;;;;;2.00;1.90;;;;;;;;;;468792;253;27565;-74
2021/07/14 09:47:52;;;;;;;2.60;2.50;;;;;;;;;;468706;253;27590;-74
2021/07/14 09:49:54;;;;;;;2.80;2.57;;;;;;;;;;468796;253;27586;-74
2021/07/14 09:51:56;;;;;;;2.20;2.00;;;;;;;;;;468768;253;27678;-74
2021/07/14 09:54:01;;;;;;;2.10;2.00;;;;;;;;;;468808;253;27587;-74
2021/07/14 09:56:01;;;;;;;2.07;1.97;;;;;;;;;;468639;254;27603;-74
2021/07/14 09:58:03;;;;;;;2.20;2.10;;;;;;;;;;468580;253;27576;-74
2021/07/14 10:00:05;;;;;;;1.87;1.77;;;;;;;;;;468796;253;27591;-74
2021/07/14 10:02:08;;;;;;;2.23;2.13;;;;;;;;;;468781;253;27585;-74
2021/07/14 10:04:09;;;;;;;2.10;2.00;;;;;;;;;;468725;253;27625;-74
2021/07/14 10:06:11;;;;;;;2.13;2.03;;;;;;;;;;468797;253;27582;-74
2021/07/14 10:08:13;;;;;;;2.00;1.90;;;;;;;;;;468758;253;27596;-74
2021/07/14 10:10:15;;;;;;;2.03;1.93;;;;;;;;;;468803;253;27582;-74
2021/07/14 10:12:18;;;;;;;2.07;1.97;;;;;;;;;;468790;253;27572;-74
2021/07/14 10:14:20;;;;;;;2.40;2.30;;;;;;;;;;468781;253;27671;-74
2021/07/14 10:16:22;;;;;;;2.10;2.00;;;;;;;;;;468177;250;28827;-74
2021/07/14 10:18:24;;;;;;;2.43;2.23;;;;;;;;;;468364;253;27559;-74
2021/07/14 10:20:29;;;;;;;2.10;2.00;;;;;;;;;;468568;253;28022;-74
2021/07/14 10:22:31;;;;;;;2.20;2.10;;;;;;;;;;468426;253;27991;-74
2021/07/14 10:24:30;;;;;;;1.77;1.67;;;;;;;;;;468391;253;27985;-74
2021/07/14 10:26:32;;;;;;;2.33;2.20;;;;;;;;;;465579;253;27463;-75
2021/07/14 10:28:34;;;;;;;2.27;2.07;;;;;;;;;;465576;254;28061;-74
2021/07/14 10:30:40;;;;;;;1.90;1.80;;;;;;;;;;467573;253;27447;-74
2021/07/14 10:32:39;;;;;;;2.00;1.90;;;;;;;;;;468724;253;27604;-74
2021/07/14 10:34:41;;;;;;;4.07;2.20;;;;;;;;;;468795;253;27577;-74
2021/07/14 10:36:43;;;;;;;2.17;2.07;;;;;;;;;;468786;253;27578;-74
2021/07/14 10:38:45;;;;;;;2.23;2.13;;;;;;;;;;468812;253;27575;-74
2021/07/14 10:40:47;;;;;;;2.27;2.17;;;;;;;;;;468801;253;27567;-74
2021/07/14 10:42:49;;;;;;;2.27;2.17;;;;;;;;;;468820;253;27635;-74
2021/07/14 10:44:51;;;;;;;3.03;2.83;;;;;;;;;;468479;249;28086;-74
2021/07/14 10:46:53;;;;;;;2.70;2.33;;;;;;;;;;468547;253;27614;-74
2021/07/14 10:48:56;;;;;;;2.20;2.10;;;;;;;;;;468734;253;28859;-74
2021/07/14 10:50:58;;;;;;;4.30;2.40;;;;;;;;;;468837;253;27589;-74
2021/07/14 10:53:00;;;;;;;2.30;2.20;;;;;;;;;;468817;253;28269;-74
2021/07/14 10:55:02;;;;;;;3.90;2.27;;;;;;;;;;468860;253;27708;-74
2021/07/14 10:57:05;;;;;;;2.20;2.10;;;;;;;;;;468880;253;28146;-74
2021/07/14 10:59:06;;;;;;;2.80;2.60;;;;;;;;;;468692;252;27708;-74
2021/07/14 11:01:09;;;;;;;2.40;2.20;;;;;;;;;;468791;253;27664;-74
2021/07/14 11:03:10;;;;;;;2.33;2.20;;;;;;;;;;468772;254;27593;-74
2021/07/14 11:05:13;;;;;;;2.17;2.07;;;;;;;;;;468778;253;27582;-74
2021/07/14 11:07:15;;;;;;;2.20;2.10;;;;;;;;;;468757;253;27595;-74
2021/07/14 11:09:17;;;;;;;2.53;2.33;;;;;;;;;;468745;253;27712;-73
2021/07/14 11:11:19;;;;;;;2.27;2.17;;;;;;;;;;468761;253;27707;-74
2021/07/14 11:13:22;;;;;;;2.70;2.50;;;;;;;;;;468769;254;27592;-74
2021/07/14 11:15:23;;;;;;;2.53;2.33;;;;;;;;;;468729;253;27599;-73
2021/07/14 11:17:25;;;;;;;2.63;2.50;;;;;;;;;;468297;253;27564;-74
2021/07/14 11:19:27;;;;;;;2.43;2.33;;;;;;;;;;468795;253;27685;-74
2021/07/14 11:21:29;;;;;;;2.13;2.03;;;;;;;;;;468779;253;27575;-74
2021/07/14 11:23:32;;;;;;;2.57;2.37;;;;;;;;;;468779;253;27583;-74
2021/07/14 11:25:34;;;;;;;2.50;2.37;;;;;;;;;;468776;254;27580;-74
2021/07/14 11:27:36;;;;;;;3.73;2.30;;;;;;;;;;468752;253;27683;-74
2021/07/14 11:29:38;;;;;;;2.33;2.13;;;;;;;;;;468729;253;27650;-74
2021/07/14 11:31:41;;;;;;;2.20;2.10;;;;;;;;;;468754;253;27660;-74
2021/07/14 11:33:42;;;;;;;2.20;2.10;;;;;;;;;;467862;251;27552;-74
2021/07/14 11:35:45;;;;;;;2.60;2.43;;;;;;;;;;468575;254;27579;-74
2021/07/14 11:37:46;;;;;;;2.30;2.13;;;;;;;;;;468740;253;27953;-74
2021/07/14 11:39:49;;;;;;;2.50;2.20;;;;;;;;;;468495;253;29121;-74
2021/07/14 11:41:51;;;;;;;2.03;1.83;;;;;;;;;;468678;253;27416;-74
2021/07/14 11:43:53;;;;;;;2.17;2.07;;;;;;;;;;468688;253;27991;-74
2021/07/14 11:45:55;;;;;;;2.60;2.40;;;;;;;;;;468655;253;27439;-74
2021/07/14 11:47:57;;;;;;;2.87;2.40;;;;;;;;;;468686;253;27935;-74
2021/07/14 11:49:59;;;;;;;2.00;1.90;;;;;;;;;;468340;251;27486;-74
2021/07/14 11:52:01;;;;;;;2.23;2.10;;;;;;;;;;468420;253;28191;-74
2021/07/14 11:54:03;;;;;;;2.40;2.27;;;;;;;;;;468439;254;27598;-74
2021/07/14 11:56:06;;;;;;;2.10;2.00;;;;;;;;;;468807;254;28781;-74
2021/07/14 11:58:08;;;;;;;2.23;2.13;;;;;;;;;;468762;253;28188;-74
2021/07/14 12:00:10;;;;;;;2.50;2.17;;;;;;;;;;468752;253;28046;-74
2021/07/14 12:02:12;;;;;;;1.90;1.80;;;;;;;;;;468739;253;27592;-74
2021/07/14 12:04:14;;;;;;;2.00;1.90;;;;;;;;;;468757;253;28819;-74
2021/07/14 12:06:16;;;;;;;2.40;2.20;;;;;;;;;;468781;253;27598;-74
2021/07/14 12:08:18;;;;;;;2.20;2.00;;;;;;;;;;468739;254;28043;-74
2021/07/14 12:10:22;;;;;;;2.10;2.00;;;;;;;;;;468754;254;27607;-74
2021/07/14 12:12:23;;;;;;;1.93;1.83;;;;;;;;;;468684;254;28173;-74
2021/07/14 12:14:25;;;;;;;1.80;1.70;;;;;;;;;;468732;253;28038;-74
2021/07/14 12:16:27;;;;;;;2.10;2.00;;;;;;;;;;468761;253;27639;-74
2021/07/14 12:18:29;;;;;;;2.03;1.93;;;;;;;;;;468797;253;28087;-73
2021/07/14 12:20:31;;;;;;;2.20;2.10;;;;;;;;;;468759;253;27604;-73
2021/07/14 12:22:33;;;;;;;2.00;1.90;;;;;;;;;;468764;254;28071;-74
2021/07/14 12:24:35;;;;;;;1.80;1.70;;;;;;;;;;468802;253;27542;-74
2021/07/14 12:26:37;;;;;;;2.03;1.93;;;;;;;;;;468761;253;28045;-74
2021/07/14 12:28:40;;;;;;;2.40;2.30;;;;;;;;;;468742;253;27589;-74
2021/07/14 12:30:43;;;;;;;4.60;2.30;;;;;;;;;;468756;253;28052;-73
2021/07/14 12:32:47;;;;;;;2.50;2.30;;;;;;;;;;468883;252;28105;-73
2021/07/14 12:34:49;;;;;;;2.40;2.30;;;;;;;;;;468810;253;27922;-74
2021/07/14 12:36:51;;;;;;;2.30;2.20;;;;;;;;;;468755;253;28135;-73
2021/07/14 12:38:53;;;;;;;2.20;2.10;;;;;;;;;;467722;251;27616;-73
2021/07/14 12:40:55;;;;;;;2.50;2.30;;;;;;;;;;468116;248;27737;-74
2021/07/14 12:42:57;;;;;;;2.43;2.27;;;;;;;;;;468576;253;27585;-74
2021/07/14 12:44:59;;;;;;;2.30;2.20;;;;;;;;;;468793;253;27598;-74
2021/07/14 12:47:02;;;;;;;2.10;2.00;;;;;;;;;;468784;253;27666;-74
2021/07/14 12:49:04;;;;;;;2.50;2.30;;;;;;;;;;468764;253;28129;-74
2021/07/14 12:51:06;;;;;;;2.03;1.93;;;;;;;;;;468760;253;27585;-74
2021/07/14 12:53:08;;;;;;;1.83;1.73;;;;;;;;;;468824;253;28813;-74
2021/07/14 12:55:10;;;;;;;1.93;1.83;;;;;;;;;;468792;253;27602;-74
2021/07/14 12:57:12;;;;;;;1.90;1.80;;;;;;;;;;468851;253;28043;-74
2021/07/14 12:59:14;;;;;;;2.00;1.90;;;;;;;;;;468830;253;27568;-74
2021/07/14 13:01:16;;;;;;;1.80;1.70;;;;;;;;;;468817;253;28057;-74
2021/07/14 13:03:21;;;;;;;1.80;1.70;;;;;;;;;;468855;253;27639;-74
2021/07/14 13:05:21;;;;;;;2.17;2.07;;;;;;;;;;468763;251;27991;-74
2021/07/14 13:07:23;;;;;;;1.90;1.80;;;;;;;;;;468854;253;27539;-74
2021/07/14 13:09:25;;;;;;;2.20;2.10;;;;;;;;;;468804;253;28016;-73
2021/07/14 13:11:29;;;;;;;1.90;1.80;;;;;;;;;;468755;253;27590;-74
2021/07/14 13:13:29;;;;;;;2.10;2.00;;;;;;;;;;468856;250;28065;-74
2021/07/14 13:15:31;;;;;;;1.93;1.73;;;;;;;;;;468829;253;27623;-74
2021/07/14 13:17:33;;;;;;;1.90;1.80;;;;;;;;;;468805;253;28006;-74
2021/07/14 13:19:35;;;;;;;2.20;2.10;;;;;;;;;;468851;253;27534;-74
2021/07/14 13:21:42;;;;;;;1.90;1.80;;;;;;;;;;468823;249;28009;-74
2021/07/14 13:23:40;;;;;;;1.80;1.70;;;;;;;;;;468736;251;27578;-74
2021/07/14 13:25:42;;;;;;;1.80;1.70;;;;;;;;;;468822;253;28063;-74
2021/07/14 13:27:44;;;;;;;1.70;1.60;;;;;;;;;;468824;253;27544;-74
2021/07/14 13:29:46;;;;;;;2.00;1.90;;;;;;;;;;468793;253;28008;-74
2021/07/14 13:31:48;;;;;;;1.70;1.63;;;;;;;;;;468844;253;28893;-74
2021/07/14 13:33:50;;;;;;;1.80;1.60;;;;;;;;;;468830;253;27577;-74
2021/07/14 13:35:52;;;;;;;1.80;1.70;;;;;;;;;;468819;253;28265;-74
2021/07/14 13:37:54;;;;;;;1.60;1.50;;;;;;;;;;468849;250;27689;-74
2021/07/14 13:39:57;;;;;;;1.50;1.40;;;;;;;;;;468793;253;28150;-74
2021/07/14 13:41:59;;;;;;;2.00;1.80;;;;;;;;;;468827;253;27649;-74
2021/07/14 13:44:01;;;;;;;1.70;1.60;;;;;;;;;;468791;252;28069;-74
2021/07/14 13:46:03;;;;;;;1.73;1.63;;;;;;;;;;468783;253;27655;-74
2021/07/14 13:48:05;;;;;;;1.63;1.50;;;;;;;;;;468258;250;28040;-74
2021/07/14 13:50:07;;;;;;;1.73;1.63;;;;;;;;;;468563;253;27559;-74
2021/07/14 13:52:09;;;;;;;1.67;1.57;;;;;;;;;;468807;253;28069;-74
2021/07/14 13:54:11;;;;;;;1.57;1.50;;;;;;;;;;468816;253;27610;-74
2021/07/14 13:56:13;;;;;;;1.50;1.40;;;;;;;;;;468767;253;28066;-74
2021/07/14 13:58:16;;;;;;;1.30;1.30;;;;;;;;;;468541;253;27697;-74
2021/07/14 14:00:18;;;;;;;1.30;1.20;;;;;;;;;;468566;253;28175;-74
2021/07/14 14:02:20;;;;;;;1.87;1.30;;;;;;;;;;468214;253;27591;-74
2021/07/14 14:04:22;;;;;;;1.10;1.10;;;;;;;;;;468577;253;28178;-74
2021/07/14 14:06:24;;;;;;;1.30;1.30;;;;;;;;;;468552;253;27544;-74
2021/07/14 14:08:26;;;;;;;1.20;1.20;;;;;;;;;;468541;253;28186;-74
2021/07/14 14:10:28;;;;;;;1.30;1.20;;;;;;;;;;468536;253;27693;-75
2021/07/14 14:12:33;;;;;;;1.77;1.37;;;;;;;;;;468766;250;28805;-74
2021/07/14 14:14:35;;;;;;;1.20;1.20;;;;;;;;;;468815;253;27695;-74